sensor_id;sensor_type;location;lat;lon;timestamp;pressure;altitude;pressure_sealevel;temperature;humidity
75414;BME280;64758;52.122;5.404;2023-03-23T00:02:30;100414.00;;;11.30;100.00
75414;BME280;64758;52.122;5.404;2023-03-23T00:05:05;100409.69;;;11.29;100.00
75414;BME280;64758;52.122;5.404;2023-03-23T00:07:32;100401.91;;;11.28;100.00
75414;BME280;64758;52.122;5.404;2023-03-23T00:09:58;100395.78;;;11.27;100.00
75414;BME280;64758;52.122;5.404;2023-03-23T00:12:26;100377.59;;;11.24;100.00
75414;BME280;64758;52.122;5.404;2023-03-23T00:15:03;100367.53;;;11.20;100.00
75414;BME280;64758;52.122;5.404;2023-03-23T00:17:30;100396.38;;;11.23;100.00
75414;BME280;64758;52.122;5.404;2023-03-23T00:19:58;100395.34;;;11.24;100.00
75414;BME280;64758;52.122;5.404;2023-03-23T00:22:27;100382.28;;;11.22;100.00
75414;BME280;64758;52.122;5.404;2023-03-23T00:24:53;100398.84;;;11.24;100.00
75414;BME280;64758;52.122;5.404;2023-03-23T00:27:19;100387.59;;;11.29;100.00
75414;BME280;64758;52.122;5.404;2023-03-23T00:29:47;100390.88;;;11.31;100.00
75414;BME280;64758;52.122;5.404;2023-03-23T00:32:13;100381.06;;;11.31;100.00
75414;BME280;64758;52.122;5.404;2023-03-23T00:34:40;100381.47;;;11.35;100.00
75414;BME280;64758;52.122;5.404;2023-03-23T00:37:08;100374.94;;;11.37;100.00
75414;BME280;64758;52.122;5.404;2023-03-23T00:39:38;100370.25;;;11.39;100.00
75414;BME280;64758;52.122;5.404;2023-03-23T00:42:04;100377.41;;;11.45;100.00
75414;BME280;64758;52.122;5.404;2023-03-23T00:44:32;100370.06;;;11.47;99.74
75414;BME280;64758;52.122;5.404;2023-03-23T00:47:00;100369.22;;;11.46;100.00
75414;BME280;64758;52.122;5.404;2023-03-23T00:49:26;100364.50;;;11.48;99.40
75414;BME280;64758;52.122;5.404;2023-03-23T00:51:53;100350.19;;;11.49;99.08
75414;BME280;64758;52.122;5.404;2023-03-23T00:54:20;100361.84;;;11.48;98.96
75414;BME280;64758;52.122;5.404;2023-03-23T00:56:46;100355.69;;;11.48;99.05
75414;BME280;64758;52.122;5.404;2023-03-23T00:59:12;100339.97;;;11.46;99.19
75414;BME280;64758;52.122;5.404;2023-03-23T01:01:38;100338.94;;;11.47;98.80
75414;BME280;64758;52.122;5.404;2023-03-23T01:04:04;100345.50;;;11.51;98.84
75414;BME280;64758;52.122;5.404;2023-03-23T01:06:34;100340.97;;;11.52;97.74
75414;BME280;64758;52.122;5.404;2023-03-23T01:09:01;100336.25;;;11.54;97.98
75414;BME280;64758;52.122;5.404;2023-03-23T01:11:28;100337.28;;;11.53;98.09
75414;BME280;64758;52.122;5.404;2023-03-23T01:13:54;100331.34;;;11.51;98.00
75414;BME280;64758;52.122;5.404;2023-03-23T01:16:20;100329.94;;;11.55;98.31
75414;BME280;64758;52.122;5.404;2023-03-23T01:18:46;100330.16;;;11.53;98.09
75414;BME280;64758;52.122;5.404;2023-03-23T01:21:14;100330.94;;;11.54;97.73
75414;BME280;64758;52.122;5.404;2023-03-23T01:23:42;100334.06;;;11.57;97.31
75414;BME280;64758;52.122;5.404;2023-03-23T01:26:13;100320.53;;;11.59;96.60
75414;BME280;64758;52.122;5.404;2023-03-23T01:28:39;100305.00;;;11.62;96.56
75414;BME280;64758;52.122;5.404;2023-03-23T01:31:13;100307.44;;;11.64;96.71
75414;BME280;64758;52.122;5.404;2023-03-23T01:33:40;100318.50;;;11.61;96.33
75414;BME280;64758;52.122;5.404;2023-03-23T01:36:09;100306.22;;;11.66;96.01
75414;BME280;64758;52.122;5.404;2023-03-23T01:38:36;100302.13;;;11.64;96.39
75414;BME280;64758;52.122;5.404;2023-03-23T01:41:02;100303.75;;;11.65;95.44
75414;BME280;64758;52.122;5.404;2023-03-23T01:43:28;100304.78;;;11.64;95.68
75414;BME280;64758;52.122;5.404;2023-03-23T01:45:54;100293.53;;;11.62;95.45
75414;BME280;64758;52.122;5.404;2023-03-23T01:48:23;100292.50;;;11.63;95.67
75414;BME280;64758;52.122;5.404;2023-03-23T01:51:06;100313.38;;;11.66;95.25
75414;BME280;64758;52.122;5.404;2023-03-23T01:53:37;100300.91;;;11.66;94.93
75414;BME280;64758;52.122;5.404;2023-03-23T01:56:04;100296.38;;;11.67;94.43
75414;BME280;64758;52.122;5.404;2023-03-23T01:58:33;100297.63;;;11.71;95.09
75414;BME280;64758;52.122;5.404;2023-03-23T02:01:04;100298.88;;;11.68;94.85
75414;BME280;64758;52.122;5.404;2023-03-23T02:03:32;100287.38;;;11.68;94.70
75414;BME280;64758;52.122;5.404;2023-03-23T02:05:58;100291.91;;;11.67;94.87
75414;BME280;64758;52.122;5.404;2023-03-23T02:08:26;100290.25;;;11.66;94.81
75414;BME280;64758;52.122;5.404;2023-03-23T02:10:53;100296.38;;;11.67;94.95
75414;BME280;64758;52.122;5.404;2023-03-23T02:13:19;100286.78;;;11.66;94.92
75414;BME280;64758;52.122;5.404;2023-03-23T02:21:07;100286.78;;;11.66;94.89
75414;BME280;64758;52.122;5.404;2023-03-23T02:24:03;100289.63;;;11.71;95.00
75414;BME280;64758;52.122;5.404;2023-03-23T02:26:59;100295.97;;;11.70;95.07
75414;BME280;64758;52.122;5.404;2023-03-23T02:35:00;100289.84;;;11.76;94.99
75414;BME280;64758;52.122;5.404;2023-03-23T02:37:32;100290.66;;;11.76;94.16
75414;BME280;64758;52.122;5.404;2023-03-23T02:40:21;100280.03;;;11.76;94.81
75414;BME280;64758;52.122;5.404;2023-03-23T02:42:52;100278.16;;;11.77;94.47
75414;BME280;64758;52.122;5.404;2023-03-23T02:45:20;100284.50;;;11.82;94.29
75414;BME280;64758;52.122;5.404;2023-03-23T02:47:50;100282.66;;;11.83;94.23
75414;BME280;64758;52.122;5.404;2023-03-23T02:50:18;100283.69;;;11.82;94.66
75414;BME280;64758;52.122;5.404;2023-03-23T02:52:48;100280.41;;;11.80;94.04
75414;BME280;64758;52.122;5.404;2023-03-23T02:55:16;100287.19;;;11.82;94.11
75414;BME280;64758;52.122;5.404;2023-03-23T02:57:43;100280.59;;;11.85;94.60
75414;BME280;64758;52.122;5.404;2023-03-23T03:00:12;100278.34;;;11.82;93.88
75414;BME280;64758;52.122;5.404;2023-03-23T03:02:43;100275.09;;;11.86;94.18
75414;BME280;64758;52.122;5.404;2023-03-23T03:05:23;100260.75;;;11.87;93.34
75414;BME280;64758;52.122;5.404;2023-03-23T03:08:02;100278.56;;;11.93;93.66
75414;BME280;64758;52.122;5.404;2023-03-23T03:16:23;100273.63;;;11.97;93.42
75414;BME280;64758;52.122;5.404;2023-03-23T03:19:01;100286.94;;;11.97;92.23
75414;BME280;64758;52.122;5.404;2023-03-23T03:21:30;100276.28;;;11.97;92.93
75414;BME280;64758;52.122;5.404;2023-03-23T03:23:58;100269.53;;;11.94;92.83
75414;BME280;64758;52.122;5.404;2023-03-23T03:26:26;100268.53;;;11.95;92.33
75414;BME280;64758;52.122;5.404;2023-03-23T03:28:54;100269.50;;;12.01;92.28
75414;BME280;64758;52.122;5.404;2023-03-23T03:31:23;100270.97;;;12.03;91.37
75414;BME280;64758;52.122;5.404;2023-03-23T03:33:51;100267.69;;;12.01;91.59
75414;BME280;64758;52.122;5.404;2023-03-23T03:36:20;100275.66;;;12.01;91.54
75414;BME280;64758;52.122;5.404;2023-03-23T03:38:49;100265.44;;;11.98;91.61
75414;BME280;64758;52.122;5.404;2023-03-23T03:41:15;100258.25;;;11.99;91.45
75414;BME280;64758;52.122;5.404;2023-03-23T03:43:41;100252.50;;;12.02;91.79
75414;BME280;64758;52.122;5.404;2023-03-23T03:46:06;100260.31;;;12.03;91.01
75414;BME280;64758;52.122;5.404;2023-03-23T03:48:32;100254.16;;;12.09;90.82
75414;BME280;64758;52.122;5.404;2023-03-23T03:50:57;100253.31;;;12.09;90.58
75414;BME280;64758;52.122;5.404;2023-03-23T03:53:26;100259.06;;;12.06;90.60
75414;BME280;64758;52.122;5.404;2023-03-23T03:55:52;100269.28;;;12.09;90.85
75414;BME280;64758;52.122;5.404;2023-03-23T03:58:21;100275.22;;;12.11;90.07
75414;BME280;64758;52.122;5.404;2023-03-23T04:00:46;100261.50;;;12.14;89.73
75414;BME280;64758;52.122;5.404;2023-03-23T04:03:15;100250.03;;;12.13;90.31
75414;BME280;64758;52.122;5.404;2023-03-23T04:05:42;100251.25;;;12.11;89.90
75414;BME280;64758;52.122;5.404;2023-03-23T04:08:10;100247.75;;;12.17;89.17
75414;BME280;64758;52.122;5.404;2023-03-23T04:10:36;100251.63;;;12.21;89.10
75414;BME280;64758;52.122;5.404;2023-03-23T04:13:02;100271.91;;;12.22;89.29
75414;BME280;64758;52.122;5.404;2023-03-23T04:15:30;100265.97;;;12.20;89.07
75414;BME280;64758;52.122;5.404;2023-03-23T04:17:55;100261.06;;;12.23;88.75
75414;BME280;64758;52.122;5.404;2023-03-23T04:20:22;100273.53;;;12.23;88.70
75414;BME280;64758;52.122;5.404;2023-03-23T04:22:48;100269.25;;;12.22;89.18
75414;BME280;64758;52.122;5.404;2023-03-23T04:25:19;100270.69;;;12.18;88.47
75414;BME280;64758;52.122;5.404;2023-03-23T04:27:49;100270.06;;;12.22;88.51
75414;BME280;64758;52.122;5.404;2023-03-23T04:30:19;100272.94;;;12.21;87.96
75414;BME280;64758;52.122;5.404;2023-03-23T04:32:47;100267.19;;;12.24;87.83
75414;BME280;64758;52.122;5.404;2023-03-23T04:35:16;100277.84;;;12.24;87.34
75414;BME280;64758;52.122;5.404;2023-03-23T04:37:43;100280.31;;;12.25;87.54
75414;BME280;64758;52.122;5.404;2023-03-23T04:40:09;100284.19;;;12.23;87.16
75414;BME280;64758;52.122;5.404;2023-03-23T04:42:38;100285.22;;;12.22;86.78
75414;BME280;64758;52.122;5.404;2023-03-23T04:45:06;100285.22;;;12.22;87.14
75414;BME280;64758;52.122;5.404;2023-03-23T04:47:33;100298.94;;;12.25;87.13
75414;BME280;64758;52.122;5.404;2023-03-23T04:50:09;100295.88;;;12.22;87.18
75414;BME280;64758;52.122;5.404;2023-03-23T04:52:37;100296.09;;;12.20;86.52
75414;BME280;64758;52.122;5.404;2023-03-23T04:55:07;100303.25;;;12.20;87.08
75414;BME280;64758;52.122;5.404;2023-03-23T04:57:34;100304.88;;;12.21;87.21
75414;BME280;64758;52.122;5.404;2023-03-23T05:00:01;100300.41;;;12.21;86.75
75414;BME280;64758;52.122;5.404;2023-03-23T05:02:34;100290.59;;;12.15;86.55
75414;BME280;64758;52.122;5.404;2023-03-23T05:05:00;100309.22;;;12.15;86.83
75414;BME280;64758;52.122;5.404;2023-03-23T05:07:26;100308.81;;;12.12;87.02
75414;BME280;64758;52.122;5.404;2023-03-23T05:09:51;100306.56;;;12.09;88.13
75414;BME280;64758;52.122;5.404;2023-03-23T05:12:17;100301.03;;;12.04;87.78
75414;BME280;64758;52.122;5.404;2023-03-23T05:14:43;100311.06;;;12.02;88.15
75414;BME280;64758;52.122;5.404;2023-03-23T05:17:09;100307.81;;;12.00;88.01
75414;BME280;64758;52.122;5.404;2023-03-23T05:19:35;100306.16;;;11.99;88.24
75414;BME280;64758;52.122;5.404;2023-03-23T05:22:01;100325.41;;;12.01;88.47
75414;BME280;64758;52.122;5.404;2023-03-23T05:24:30;100323.38;;;11.96;90.67
75414;BME280;64758;52.122;5.404;2023-03-23T05:26:58;100311.94;;;11.83;91.89
75414;BME280;64758;52.122;5.404;2023-03-23T05:29:24;100297.63;;;11.71;92.30
75414;BME280;64758;52.122;5.404;2023-03-23T05:31:51;100308.88;;;11.66;92.46
75414;BME280;64758;52.122;5.404;2023-03-23T05:34:18;100322.38;;;11.65;92.52
75414;BME280;64758;52.122;5.404;2023-03-23T05:36:44;100321.78;;;11.63;92.70
75414;BME280;64758;52.122;5.404;2023-03-23T05:39:11;100326.69;;;11.59;93.03
75414;BME280;64758;52.122;5.404;2023-03-23T05:41:38;100330.56;;;11.57;93.32
75414;BME280;64758;52.122;5.404;2023-03-23T05:44:04;100326.03;;;11.51;93.39
75414;BME280;64758;52.122;5.404;2023-03-23T05:46:30;100325.41;;;11.49;94.25
75414;BME280;64758;52.122;5.404;2023-03-23T05:48:55;100337.72;;;11.43;95.64
75414;BME280;64758;52.122;5.404;2023-03-23T05:51:21;100331.97;;;11.34;96.81
75414;BME280;64758;52.122;5.404;2023-03-23T05:53:46;100348.13;;;11.19;98.25
75414;BME280;64758;52.122;5.404;2023-03-23T05:56:13;100342.16;;;11.11;99.43
75414;BME280;64758;52.122;5.404;2023-03-23T05:58:39;100343.81;;;11.05;100.00
75414;BME280;64758;52.122;5.404;2023-03-23T06:01:08;100351.78;;;11.05;100.00
75414;BME280;64758;52.122;5.404;2023-03-23T06:03:34;100343.78;;;10.99;100.00
75414;BME280;64758;52.122;5.404;2023-03-23T06:06:02;100367.91;;;10.97;100.00
75414;BME280;64758;52.122;5.404;2023-03-23T06:08:29;100374.00;;;10.91;100.00
75414;BME280;64758;52.122;5.404;2023-03-23T06:10:55;100361.75;;;10.90;100.00
75414;BME280;64758;52.122;5.404;2023-03-23T06:13:22;100373.16;;;10.84;100.00
75414;BME280;64758;52.122;5.404;2023-03-23T06:15:48;100369.28;;;10.80;100.00
75414;BME280;64758;52.122;5.404;2023-03-23T06:18:14;100367.81;;;10.71;100.00
75414;BME280;64758;52.122;5.404;2023-03-23T06:20:40;100379.63;;;10.69;100.00
75414;BME280;64758;52.122;5.404;2023-03-23T06:23:06;100375.94;;;10.63;100.00
75414;BME280;64758;52.122;5.404;2023-03-23T06:25:34;100388.59;;;10.61;100.00
75414;BME280;64758;52.122;5.404;2023-03-23T06:27:59;100386.13;;;10.60;100.00
75414;BME280;64758;52.122;5.404;2023-03-23T06:30:25;100389.00;;;10.58;100.00
75414;BME280;64758;52.122;5.404;2023-03-23T06:32:52;100395.50;;;10.56;100.00
75414;BME280;64758;52.122;5.404;2023-03-23T06:35:18;100384.06;;;10.55;100.00
75414;BME280;64758;52.122;5.404;2023-03-23T06:37:43;100392.22;;;10.54;100.00
75414;BME280;64758;52.122;5.404;2023-03-23T06:40:09;100408.59;;;10.57;100.00
75414;BME280;64758;52.122;5.404;2023-03-23T06:42:35;100407.59;;;10.58;100.00
75414;BME280;64758;52.122;5.404;2023-03-23T06:45:03;100405.56;;;10.60;100.00
75414;BME280;64758;52.122;5.404;2023-03-23T06:47:29;100400.25;;;10.60;100.00
75414;BME280;64758;52.122;5.404;2023-03-23T06:49:56;100413.31;;;10.62;100.00
75414;BME280;64758;52.122;5.404;2023-03-23T06:52:21;100408.63;;;10.64;100.00
75414;BME280;64758;52.122;5.404;2023-03-23T06:54:51;100416.00;;;10.68;100.00
75414;BME280;64758;52.122;5.404;2023-03-23T06:57:17;100410.25;;;10.65;100.00
75414;BME280;64758;52.122;5.404;2023-03-23T06:59:43;100417.59;;;10.63;100.00
75414;BME280;64758;52.122;5.404;2023-03-23T07:02:13;100426.00;;;10.66;100.00
75414;BME280;64758;52.122;5.404;2023-03-23T07:04:39;100425.38;;;10.64;100.00
75414;BME280;64758;52.122;5.404;2023-03-23T07:07:08;100414.78;;;10.64;100.00
75414;BME280;64758;52.122;5.404;2023-03-23T07:09:33;100415.16;;;10.61;100.00
75414;BME280;64758;52.122;5.404;2023-03-23T07:11:59;100426.19;;;10.65;100.00
75414;BME280;64758;52.122;5.404;2023-03-23T07:14:24;100413.53;;;10.60;100.00
75414;BME280;64758;52.122;5.404;2023-03-23T07:16:50;100411.28;;;10.64;100.00
75414;BME280;64758;52.122;5.404;2023-03-23T07:19:15;100422.09;;;10.62;100.00
75414;BME280;64758;52.122;5.404;2023-03-23T07:21:41;100423.31;;;10.60;100.00
75414;BME280;64758;52.122;5.404;2023-03-23T07:24:13;100421.66;;;10.59;100.00
75414;BME280;64758;52.122;5.404;2023-03-23T07:26:41;100421.28;;;10.62;100.00
75414;BME280;64758;52.122;5.404;2023-03-23T07:29:08;100424.56;;;10.64;100.00
75414;BME280;64758;52.122;5.404;2023-03-23T07:31:34;100430.94;;;10.69;100.00
75414;BME280;64758;52.122;5.404;2023-03-23T07:34:01;100429.53;;;10.80;100.00
75414;BME280;64758;52.122;5.404;2023-03-23T07:36:28;100443.09;;;10.91;100.00
75414;BME280;64758;52.122;5.404;2023-03-23T07:38:54;100445.59;;;10.99;100.00
75414;BME280;64758;52.122;5.404;2023-03-23T07:41:20;100441.91;;;11.00;100.00
75414;BME280;64758;52.122;5.404;2023-03-23T07:43:45;100450.28;;;11.04;100.00
75414;BME280;64758;52.122;5.404;2023-03-23T07:46:12;100448.06;;;11.07;100.00
75414;BME280;64758;52.122;5.404;2023-03-23T07:48:38;100452.56;;;11.07;100.00
75414;BME280;64758;52.122;5.404;2023-03-23T07:51:04;100448.47;;;11.11;100.00
75414;BME280;64758;52.122;5.404;2023-03-23T07:53:30;100458.31;;;11.17;100.00
75414;BME280;64758;52.122;5.404;2023-03-23T07:55:56;100453.84;;;11.17;100.00
75414;BME280;64758;52.122;5.404;2023-03-23T07:58:21;100453.41;;;11.14;100.00
75414;BME280;64758;52.122;5.404;2023-03-23T08:00:47;100449.72;;;11.15;100.00
75414;BME280;64758;52.122;5.404;2023-03-23T08:03:14;100445.63;;;11.12;100.00
75414;BME280;64758;52.122;5.404;2023-03-23T08:05:41;100451.97;;;11.18;100.00
75414;BME280;64758;52.122;5.404;2023-03-23T08:08:08;100464.03;;;11.14;100.00
75414;BME280;64758;52.122;5.404;2023-03-23T08:10:35;100452.38;;;11.15;100.00
75414;BME280;64758;52.122;5.404;2023-03-23T08:13:01;100465.72;;;11.21;100.00
75414;BME280;64758;52.122;5.404;2023-03-23T08:15:27;100482.06;;;11.25;100.00
75414;BME280;64758;52.122;5.404;2023-03-23T08:17:54;100479.22;;;11.26;100.00
75414;BME280;64758;52.122;5.404;2023-03-23T08:20:20;100462.66;;;11.24;100.00
75414;BME280;64758;52.122;5.404;2023-03-23T08:22:53;100462.03;;;11.22;100.00
75414;BME280;64758;52.122;5.404;2023-03-23T08:25:21;100475.56;;;11.34;100.00
75414;BME280;64758;52.122;5.404;2023-03-23T08:27:47;100467.22;;;11.43;100.00
75414;BME280;64758;52.122;5.404;2023-03-23T08:30:15;100459.63;;;11.53;100.00
75414;BME280;64758;52.122;5.404;2023-03-23T08:32:42;100467.47;;;11.61;100.00
75414;BME280;64758;52.122;5.404;2023-03-23T08:35:09;100463.81;;;11.75;100.00
75414;BME280;64758;52.122;5.404;2023-03-23T08:37:36;100472.22;;;11.91;100.00
75414;BME280;64758;52.122;5.404;2023-03-23T08:40:03;100469.56;;;11.98;99.90
75414;BME280;64758;52.122;5.404;2023-03-23T08:42:34;100479.41;;;11.97;99.19
75414;BME280;64758;52.122;5.404;2023-03-23T08:45:00;100473.88;;;11.99;99.33
75414;BME280;64758;52.122;5.404;2023-03-23T08:47:26;100489.63;;;12.07;99.09
75414;BME280;64758;52.122;5.404;2023-03-23T08:49:52;100486.56;;;12.03;99.00
75414;BME280;64758;52.122;5.404;2023-03-23T08:52:19;100483.47;;;11.87;99.18
75414;BME280;64758;52.122;5.404;2023-03-23T08:54:45;100471.19;;;11.79;98.85
75414;BME280;64758;52.122;5.404;2023-03-23T08:57:12;100479.78;;;11.81;99.86
75414;BME280;64758;52.122;5.404;2023-03-23T08:59:40;100489.41;;;11.89;98.55
75414;BME280;64758;52.122;5.404;2023-03-23T09:02:05;100497.19;;;11.97;98.08
75414;BME280;64758;52.122;5.404;2023-03-23T09:04:31;100500.47;;;11.99;98.36
75414;BME280;64758;52.122;5.404;2023-03-23T09:06:57;100499.88;;;12.10;97.53
75414;BME280;64758;52.122;5.404;2023-03-23T09:09:23;100510.97;;;12.26;97.00
75414;BME280;64758;52.122;5.404;2023-03-23T09:11:48;100499.28;;;12.40;95.98
75414;BME280;64758;52.122;5.404;2023-03-23T09:14:15;100498.06;;;12.36;94.28
75414;BME280;64758;52.122;5.404;2023-03-23T09:16:40;100493.31;;;12.32;93.96
75414;BME280;64758;52.122;5.404;2023-03-23T09:19:06;100496.81;;;12.45;93.60
75414;BME280;64758;52.122;5.404;2023-03-23T09:21:34;100484.09;;;12.60;91.51
75414;BME280;64758;52.122;5.404;2023-03-23T09:23:59;100494.53;;;12.62;93.03
75414;BME280;64758;52.122;5.404;2023-03-23T09:26:27;100489.00;;;12.63;90.88
75414;BME280;64758;52.122;5.404;2023-03-23T09:28:52;100498.84;;;12.50;91.10
75414;BME280;64758;52.122;5.404;2023-03-23T09:31:18;100509.09;;;12.40;89.25
75414;BME280;64758;52.122;5.404;2023-03-23T09:33:46;100492.28;;;12.46;90.39
75414;BME280;64758;52.122;5.404;2023-03-23T09:36:12;100511.78;;;12.46;91.54
75414;BME280;64758;52.122;5.404;2023-03-23T09:38:39;100505.00;;;12.44;89.37
75414;BME280;64758;52.122;5.404;2023-03-23T09:44:02;100508.03;;;12.67;90.31
75414;BME280;64758;52.122;5.404;2023-03-23T09:46:39;100511.75;;;12.72;86.90
75414;BME280;64758;52.122;5.404;2023-03-23T09:49:15;100515.03;;;12.74;85.05
75414;BME280;64758;52.122;5.404;2023-03-23T09:51:45;100537.78;;;12.70;87.06
75414;BME280;64758;52.122;5.404;2023-03-23T09:56:49;100515.41;;;12.77;84.45
75414;BME280;64758;52.122;5.404;2023-03-23T09:59:23;100521.13;;;12.81;85.67
75414;BME280;64758;52.122;5.404;2023-03-23T10:01:54;100525.22;;;13.03;83.61
75414;BME280;64758;52.122;5.404;2023-03-23T10:04:36;100538.97;;;13.00;85.38
75414;BME280;64758;52.122;5.404;2023-03-23T10:07:15;100537.53;;;12.97;84.47
75414;BME280;64758;52.122;5.404;2023-03-23T10:09:43;100536.88;;;13.15;84.00
75414;BME280;64758;52.122;5.404;2023-03-23T10:18:04;100563.31;;;13.29;80.61
75414;BME280;64758;52.122;5.404;2023-03-23T10:28:44;100552.72;;;13.03;82.15
75414;BME280;64758;52.122;5.404;2023-03-23T10:31:16;100557.41;;;13.08;80.78
75414;BME280;64758;52.122;5.404;2023-03-23T10:33:46;100550.25;;;12.95;79.03
75414;BME280;64758;52.122;5.404;2023-03-23T10:39:13;100570.97;;;12.68;80.98
75414;BME280;64758;52.122;5.404;2023-03-23T10:41:42;100571.97;;;12.86;78.64
75414;BME280;64758;52.122;5.404;2023-03-23T10:44:17;100554.75;;;12.88;77.65
75414;BME280;64758;52.122;5.404;2023-03-23T10:46:58;100560.53;;;12.72;78.93
75414;BME280;64758;52.122;5.404;2023-03-23T10:49:28;100557.44;;;12.75;78.30
75414;BME280;64758;52.122;5.404;2023-03-23T10:52:35;100576.72;;;12.71;78.51
75414;BME280;64758;52.122;5.404;2023-03-23T10:55:21;100556.44;;;12.70;79.28
75414;BME280;64758;52.122;5.404;2023-03-23T10:58:03;100566.22;;;12.89;77.93
75414;BME280;64758;52.122;5.404;2023-03-23T11:00:30;100561.66;;;13.28;77.80
75414;BME280;64758;52.122;5.404;2023-03-23T11:03:05;100584.09;;;13.65;74.62
75414;BME280;64758;52.122;5.404;2023-03-23T11:05:36;100564.97;;;13.68;75.13
75414;BME280;64758;52.122;5.404;2023-03-23T11:08:02;100575.09;;;13.59;72.41
75414;BME280;64758;52.122;5.404;2023-03-23T11:10:37;100576.75;;;13.54;73.07
75414;BME280;64758;52.122;5.404;2023-03-23T11:13:03;100591.28;;;13.64;72.89
75414;BME280;64758;52.122;5.404;2023-03-23T11:15:38;100582.53;;;13.44;71.44
75414;BME280;64758;52.122;5.404;2023-03-23T11:18:13;100568.22;;;13.32;72.38
75414;BME280;64758;52.122;5.404;2023-03-23T11:20:44;100577.41;;;13.49;74.29
75414;BME280;64758;52.122;5.404;2023-03-23T11:23:29;100556.81;;;14.00;73.44
75414;BME280;64758;52.122;5.404;2023-03-23T11:31:43;100547.94;;;15.04;67.22
75414;BME280;64758;52.122;5.404;2023-03-23T11:34:15;100548.97;;;15.21;67.82
75414;BME280;64758;52.122;5.404;2023-03-23T11:36:46;100550.09;;;15.13;65.88
75414;BME280;64758;52.122;5.404;2023-03-23T11:41:52;100555.28;;;14.90;66.96
75414;BME280;64758;52.122;5.404;2023-03-23T11:44:20;100563.19;;;14.79;67.83
75414;BME280;64758;52.122;5.404;2023-03-23T11:49:24;100552.38;;;14.92;67.89
75414;BME280;64758;52.122;5.404;2023-03-23T11:52:01;100547.72;;;14.63;67.32
75414;BME280;64758;52.122;5.404;2023-03-23T11:54:32;100551.63;;;14.36;68.56
75414;BME280;64758;52.122;5.404;2023-03-23T11:56:59;100572.19;;;14.04;69.79
75414;BME280;64758;52.122;5.404;2023-03-23T11:59:29;100581.00;;;13.68;75.53
75414;BME280;64758;52.122;5.404;2023-03-23T12:02:20;100576.69;;;12.97;80.62
75414;BME280;64758;52.122;5.404;2023-03-23T12:08:05;100593.34;;;12.60;86.80
75414;BME280;64758;52.122;5.404;2023-03-23T12:13:32;100584.72;;;13.03;90.12
75414;BME280;64758;52.122;5.404;2023-03-23T12:29:15;100565.81;;;13.68;82.77
75414;BME280;64758;52.122;5.404;2023-03-23T12:34:50;100560.78;;;13.47;82.72
75414;BME280;64758;52.122;5.404;2023-03-23T12:45:21;100559.31;;;13.51;81.43
75414;BME280;64758;52.122;5.404;2023-03-23T12:48:00;100554.97;;;13.57;80.79
75414;BME280;64758;52.122;5.404;2023-03-23T12:53:03;100542.50;;;14.19;79.13
75414;BME280;64758;52.122;5.404;2023-03-23T12:55:45;100532.00;;;14.24;76.79
75414;BME280;64758;52.122;5.404;2023-03-23T12:58:37;100529.44;;;14.60;77.17
75414;BME280;64758;52.122;5.404;2023-03-23T13:01:06;100514.19;;;15.03;74.45
75414;BME280;64758;52.122;5.404;2023-03-23T13:03:57;100519.84;;;15.13;72.56
75414;BME280;64758;52.122;5.404;2023-03-23T13:06:32;100524.88;;;14.85;69.76
75414;BME280;64758;52.122;5.404;2023-03-23T13:12:22;100524.56;;;14.75;70.23
75414;BME280;64758;52.122;5.404;2023-03-23T13:20:34;100539.00;;;15.10;69.65
75414;BME280;64758;52.122;5.404;2023-03-23T13:25:50;100537.50;;;14.96;69.20
75414;BME280;64758;52.122;5.404;2023-03-23T13:28:22;100540.94;;;15.03;68.54
75414;BME280;64758;52.122;5.404;2023-03-23T13:33:36;100539.53;;;15.54;66.65
75414;BME280;64758;52.122;5.404;2023-03-23T13:36:10;100528.69;;;15.49;67.96
75414;BME280;64758;52.122;5.404;2023-03-23T13:38:37;100542.06;;;15.49;67.72
75414;BME280;64758;52.122;5.404;2023-03-23T13:41:11;100526.50;;;15.28;67.93
75414;BME280;64758;52.122;5.404;2023-03-23T13:43:39;100540.00;;;15.33;69.80
75414;BME280;64758;52.122;5.404;2023-03-23T13:48:51;100547.50;;;15.60;68.77
75414;BME280;64758;52.122;5.404;2023-03-23T13:51:47;100537.69;;;15.54;68.93
75414;BME280;64758;52.122;5.404;2023-03-23T13:54:39;100545.84;;;15.30;69.92
75414;BME280;64758;52.122;5.404;2023-03-23T13:57:32;100559.53;;;15.16;69.87
75414;BME280;64758;52.122;5.404;2023-03-23T14:00:08;100540.72;;;15.04;70.06
75414;BME280;64758;52.122;5.404;2023-03-23T14:02:41;100530.81;;;14.87;71.05
75414;BME280;64758;52.122;5.404;2023-03-23T14:08:21;100538.75;;;14.51;72.94
75414;BME280;64758;52.122;5.404;2023-03-23T14:16:00;100563.03;;;13.50;80.65
75414;BME280;64758;52.122;5.404;2023-03-23T14:18:31;100562.28;;;13.30;83.07
75414;BME280;64758;52.122;5.404;2023-03-23T14:20:57;100567.47;;;13.12;85.55
75414;BME280;64758;52.122;5.404;2023-03-23T14:23:24;100561.34;;;12.92;88.00
75414;BME280;64758;52.122;5.404;2023-03-23T14:26:10;100572.38;;;13.09;89.91
75414;BME280;64758;52.122;5.404;2023-03-23T14:28:43;100575.94;;;13.53;88.52
75414;BME280;64758;52.122;5.404;2023-03-23T14:31:19;100567.72;;;13.55;88.62
75414;BME280;64758;52.122;5.404;2023-03-23T14:33:45;100572.81;;;13.63;88.10
75414;BME280;64758;52.122;5.404;2023-03-23T14:36:14;100555.94;;;13.69;88.34
75414;BME280;64758;52.122;5.404;2023-03-23T14:38:40;100537.84;;;13.77;86.26
75414;BME280;64758;52.122;5.404;2023-03-23T14:41:06;100540.06;;;14.11;89.24
75414;BME280;64758;52.122;5.404;2023-03-23T14:43:33;100513.19;;;14.61;83.83
75414;BME280;64758;52.122;5.404;2023-03-23T14:46:02;100499.78;;;15.04;82.28
75414;BME280;64758;52.122;5.404;2023-03-23T14:48:30;100486.69;;;15.49;79.30